sensor_id;sensor_type;location;lat;lon;timestamp;pressure;altitude;pressure_sealevel;temperature;humidity
42727;BME280;28372;56.832;60.658;2024-02-21T00:00:24;99125.78;;;-18.55;60.33
42727;BME280;28372;56.832;60.658;2024-02-21T00:02:52;99108.19;;;-18.78;59.91
42727;BME280;28372;56.832;60.658;2024-02-21T00:05:21;99119.38;;;-18.69;61.17
42727;BME280;28372;56.832;60.658;2024-02-21T00:07:48;99130.97;;;-18.73;60.44
42727;BME280;28372;56.832;60.658;2024-02-21T00:10:16;99109.97;;;-18.78;60.79
42727;BME280;28372;56.832;60.658;2024-02-21T00:12:45;99122.25;;;-18.72;60.44
42727;BME280;28372;56.832;60.658;2024-02-21T00:15:15;99116.34;;;-18.65;60.64
42727;BME280;28372;56.832;60.658;2024-02-21T00:17:44;99114.66;;;-18.74;60.15
42727;BME280;28372;56.832;60.658;2024-02-21T00:20:14;99114.56;;;-18.64;60.72
42727;BME280;28372;56.832;60.658;2024-02-21T00:22:44;99119.47;;;-18.53;59.66
42727;BME280;28372;56.832;60.658;2024-02-21T00:25:12;99130.38;;;-18.41;59.46
42727;BME280;28372;56.832;60.658;2024-02-21T00:27:40;99112.41;;;-18.51;59.20
42727;BME280;28372;56.832;60.658;2024-02-21T00:30:08;99114.16;;;-18.51;59.26
42727;BME280;28372;56.832;60.658;2024-02-21T00:32:36;99115.59;;;-18.31;58.40
42727;BME280;28372;56.832;60.658;2024-02-21T00:35:05;99119.13;;;-18.32;57.63
42727;BME280;28372;56.832;60.658;2024-02-21T00:37:35;99105.31;;;-18.49;57.26
42727;BME280;28372;56.832;60.658;2024-02-21T00:40:05;99088.28;;;-18.68;57.63
42727;BME280;28372;56.832;60.658;2024-02-21T00:42:33;99111.81;;;-18.71;58.08
42727;BME280;28372;56.832;60.658;2024-02-21T00:45:00;99110.16;;;-18.72;57.93
42727;BME280;28372;56.832;60.658;2024-02-21T00:47:30;99118.94;;;-18.83;58.48
42727;BME280;28372;56.832;60.658;2024-02-21T00:49:58;99112.88;;;-19.00;58.63
42727;BME280;28372;56.832;60.658;2024-02-21T00:52:27;99130.22;;;-18.84;58.55
42727;BME280;28372;56.832;60.658;2024-02-21T00:54:55;99120.38;;;-18.88;58.75
42727;BME280;28372;56.832;60.658;2024-02-21T00:57:22;99104.78;;;-18.78;58.52
42727;BME280;28372;56.832;60.658;2024-02-21T00:59:50;99115.69;;;-18.93;58.84
42727;BME280;28372;56.832;60.658;2024-02-21T01:02:19;99114.28;;;-18.87;58.43
42727;BME280;28372;56.832;60.658;2024-02-21T01:04:47;99110.16;;;-18.98;58.49
42727;BME280;28372;56.832;60.658;2024-02-21T01:07:15;99119.59;;;-18.89;57.96
42727;BME280;28372;56.832;60.658;2024-02-21T01:09:43;99120.09;;;-19.03;58.77
42727;BME280;28372;56.832;60.658;2024-02-21T01:12:10;99125.09;;;-19.02;58.67
42727;BME280;28372;56.832;60.658;2024-02-21T01:14:38;99125.94;;;-19.01;58.61
42727;BME280;28372;56.832;60.658;2024-02-21T01:17:06;99122.03;;;-19.05;58.39
42727;BME280;28372;56.832;60.658;2024-02-21T01:19:34;99118.91;;;-19.09;58.77
42727;BME280;28372;56.832;60.658;2024-02-21T01:22:02;99121.19;;;-18.88;58.28
42727;BME280;28372;56.832;60.658;2024-02-21T01:24:30;99104.75;;;-18.87;57.78
42727;BME280;28372;56.832;60.658;2024-02-21T01:26:58;99109.50;;;-18.74;57.40
42727;BME280;28372;56.832;60.658;2024-02-21T01:29:25;99118.34;;;-18.76;56.73
42727;BME280;28372;56.832;60.658;2024-02-21T01:31:53;99117.31;;;-18.84;56.45
42727;BME280;28372;56.832;60.658;2024-02-21T01:34:21;99118.25;;;-18.93;56.36
42727;BME280;28372;56.832;60.658;2024-02-21T01:36:49;99109.44;;;-19.08;56.95
42727;BME280;28372;56.832;60.658;2024-02-21T01:39:19;99117.38;;;-19.02;56.51
42727;BME280;28372;56.832;60.658;2024-02-21T01:41:49;99113.84;;;-19.01;56.83
42727;BME280;28372;56.832;60.658;2024-02-21T01:44:17;99113.50;;;-19.06;56.62
42727;BME280;28372;56.832;60.658;2024-02-21T01:46:45;99106.41;;;-19.22;56.47
42727;BME280;28372;56.832;60.658;2024-02-21T01:49:13;99113.84;;;-19.37;56.96
42727;BME280;28372;56.832;60.658;2024-02-21T01:51:42;99097.47;;;-19.45;57.54
42727;BME280;28372;56.832;60.658;2024-02-21T01:54:12;99083.72;;;-19.36;57.76
42727;BME280;28372;56.832;60.658;2024-02-21T01:56:42;99106.25;;;-19.38;57.55
42727;BME280;28372;56.832;60.658;2024-02-21T01:59:13;99089.75;;;-19.27;58.02
42727;BME280;28372;56.832;60.658;2024-02-21T02:01:43;99104.28;;;-19.08;58.10
42727;BME280;28372;56.832;60.658;2024-02-21T02:04:12;99099.03;;;-18.99;57.96
42727;BME280;28372;56.832;60.658;2024-02-21T02:06:41;99089.63;;;-18.82;57.59
42727;BME280;28372;56.832;60.658;2024-02-21T02:09:09;99092.88;;;-18.53;56.65
42727;BME280;28372;56.832;60.658;2024-02-21T02:11:37;99090.66;;;-18.48;55.64
42727;BME280;28372;56.832;60.658;2024-02-21T02:14:05;99098.09;;;-18.45;55.07
42727;BME280;28372;56.832;60.658;2024-02-21T02:16:33;99097.97;;;-18.35;54.59
42727;BME280;28372;56.832;60.658;2024-02-21T02:19:01;99098.44;;;-18.40;54.04
42727;BME280;28372;56.832;60.658;2024-02-21T02:21:35;99102.94;;;-18.42;53.40
42727;BME280;28372;56.832;60.658;2024-02-21T02:24:08;99093.50;;;-18.59;53.66
42727;BME280;28372;56.832;60.658;2024-02-21T02:26:36;99106.78;;;-18.46;53.55
42727;BME280;28372;56.832;60.658;2024-02-21T02:29:04;99094.28;;;-18.59;53.37
42727;BME280;28372;56.832;60.658;2024-02-21T02:31:32;99102.78;;;-18.67;53.71
42727;BME280;28372;56.832;60.658;2024-02-21T02:33:59;99107.84;;;-18.83;54.39
42727;BME280;28372;56.832;60.658;2024-02-21T02:36:27;99103.63;;;-18.84;54.36
42727;BME280;28372;56.832;60.658;2024-02-21T02:38:55;99099.53;;;-18.95;54.74
42727;BME280;28372;56.832;60.658;2024-02-21T02:41:23;99090.69;;;-18.92;54.86
42727;BME280;28372;56.832;60.658;2024-02-21T02:43:51;99103.00;;;-18.78;54.25
42727;BME280;28372;56.832;60.658;2024-02-21T02:46:19;99094.53;;;-18.70;54.12
42727;BME280;28372;56.832;60.658;2024-02-21T02:48:47;99115.41;;;-18.64;53.62
42727;BME280;28372;56.832;60.658;2024-02-21T02:51:17;99112.97;;;-18.65;53.25
42727;BME280;28372;56.832;60.658;2024-02-21T02:53:45;99107.53;;;-18.80;53.64
42727;BME280;28372;56.832;60.658;2024-02-21T02:56:16;99121.50;;;-18.91;53.18
42727;BME280;28372;56.832;60.658;2024-02-21T02:58:43;99120.19;;;-19.13;53.22
42727;BME280;28372;56.832;60.658;2024-02-21T03:01:12;99109.19;;;-19.33;53.90
42727;BME280;28372;56.832;60.658;2024-02-21T03:03:43;99109.44;;;-19.26;53.86
42727;BME280;28372;56.832;60.658;2024-02-21T03:06:14;99117.41;;;-19.20;54.34
42727;BME280;28372;56.832;60.658;2024-02-21T03:08:42;99106.03;;;-19.27;54.37
42727;BME280;28372;56.832;60.658;2024-02-21T03:11:10;99123.66;;;-19.22;55.52
42727;BME280;28372;56.832;60.658;2024-02-21T03:13:38;99119.75;;;-19.08;54.81
42727;BME280;28372;56.832;60.658;2024-02-21T03:16:06;99127.19;;;-18.87;54.46
42727;BME280;28372;56.832;60.658;2024-02-21T03:18:36;99113.41;;;-18.70;53.68
42727;BME280;28372;56.832;60.658;2024-02-21T03:21:05;99101.66;;;-18.64;53.62
42727;BME280;28372;56.832;60.658;2024-02-21T03:23:33;99111.09;;;-18.55;53.02
42727;BME280;28372;56.832;60.658;2024-02-21T03:26:01;99108.25;;;-18.43;52.33
42727;BME280;28372;56.832;60.658;2024-02-21T03:28:29;99110.84;;;-18.43;52.13
42727;BME280;28372;56.832;60.658;2024-02-21T03:30:57;99105.38;;;-18.40;52.43
42727;BME280;28372;56.832;60.658;2024-02-21T03:33:25;99105.47;;;-18.24;52.04
42727;BME280;28372;56.832;60.658;2024-02-21T03:35:54;99103.69;;;-18.23;52.15
42727;BME280;28372;56.832;60.658;2024-02-21T03:38:22;99112.09;;;-18.21;52.12
42727;BME280;28372;56.832;60.658;2024-02-21T03:40:49;99118.75;;;-18.11;51.52
42727;BME280;28372;56.832;60.658;2024-02-21T03:43:17;99113.56;;;-18.19;51.34
42727;BME280;28372;56.832;60.658;2024-02-21T03:45:45;99106.97;;;-18.13;51.91
42727;BME280;28372;56.832;60.658;2024-02-21T03:48:13;99125.84;;;-17.78;51.21
42727;BME280;28372;56.832;60.658;2024-02-21T03:50:41;99108.75;;;-17.54;52.20
42727;BME280;28372;56.832;60.658;2024-02-21T03:53:10;99118.22;;;-17.20;52.22
42727;BME280;28372;56.832;60.658;2024-02-21T03:55:37;99110.81;;;-16.91;51.84
42727;BME280;28372;56.832;60.658;2024-02-21T03:58:05;99122.56;;;-16.55;50.68
42727;BME280;28372;56.832;60.658;2024-02-21T04:00:35;99106.63;;;-16.19;50.41
42727;BME280;28372;56.832;60.658;2024-02-21T04:03:04;99110.66;;;-15.77;48.30
42727;BME280;28372;56.832;60.658;2024-02-21T04:05:32;99091.34;;;-15.66;47.11
42727;BME280;28372;56.832;60.658;2024-02-21T04:08:06;99101.75;;;-15.43;46.86
42727;BME280;28372;56.832;60.658;2024-02-21T04:10:33;99097.97;;;-15.32;45.94
42727;BME280;28372;56.832;60.658;2024-02-21T04:13:01;99093.19;;;-15.20;45.44
42727;BME280;28372;56.832;60.658;2024-02-21T04:15:29;99097.53;;;-14.89;44.89
42727;BME280;28372;56.832;60.658;2024-02-21T04:17:57;99099.00;;;-14.42;45.41
42727;BME280;28372;56.832;60.658;2024-02-21T04:20:26;99089.97;;;-13.86;45.04
42727;BME280;28372;56.832;60.658;2024-02-21T04:22:54;99095.03;;;-13.27;44.27
42727;BME280;28372;56.832;60.658;2024-02-21T04:25:22;99100.97;;;-12.68;43.60
42727;BME280;28372;56.832;60.658;2024-02-21T04:27:50;99091.81;;;-12.00;44.04
42727;BME280;28372;56.832;60.658;2024-02-21T04:30:18;99102.69;;;-11.35;42.99
42727;BME280;28372;56.832;60.658;2024-02-21T04:32:46;99099.19;;;-10.54;41.38
42727;BME280;28372;56.832;60.658;2024-02-21T04:35:16;99102.34;;;-9.53;39.53
42727;BME280;28372;56.832;60.658;2024-02-21T04:37:45;99097.56;;;-8.60;38.28
42727;BME280;28372;56.832;60.658;2024-02-21T04:40:14;99100.22;;;-7.79;36.48
42727;BME280;28372;56.832;60.658;2024-02-21T04:42:45;99103.94;;;-6.89;35.11
42727;BME280;28372;56.832;60.658;2024-02-21T04:45:13;99092.16;;;-6.32;33.52
42727;BME280;28372;56.832;60.658;2024-02-21T04:47:42;99110.59;;;-5.68;32.72
42727;BME280;28372;56.832;60.658;2024-02-21T04:50:11;99103.56;;;-5.10;31.72
42727;BME280;28372;56.832;60.658;2024-02-21T04:52:40;99106.97;;;-4.13;30.30
42727;BME280;28372;56.832;60.658;2024-02-21T04:55:08;99106.91;;;-3.39;28.82
42727;BME280;28372;56.832;60.658;2024-02-21T04:57:36;99108.94;;;-2.97;28.51
42727;BME280;28372;56.832;60.658;2024-02-21T05:00:05;99110.78;;;-2.65;27.68
42727;BME280;28372;56.832;60.658;2024-02-21T05:02:35;99101.88;;;-2.21;26.73
42727;BME280;28372;56.832;60.658;2024-02-21T05:05:05;99105.84;;;-1.76;25.87
42727;BME280;28372;56.832;60.658;2024-02-21T05:07:34;99106.31;;;-1.31;25.66
42727;BME280;28372;56.832;60.658;2024-02-21T05:10:02;99104.25;;;-0.98;24.56
42727;BME280;28372;56.832;60.658;2024-02-21T05:12:31;99097.13;;;-0.72;23.97
42727;BME280;28372;56.832;60.658;2024-02-21T05:15:02;99097.94;;;-0.41;23.64
42727;BME280;28372;56.832;60.658;2024-02-21T05:17:30;99099.53;;;-0.19;23.45
42727;BME280;28372;56.832;60.658;2024-02-21T05:19:58;99105.31;;;0.19;22.68
42727;BME280;28372;56.832;60.658;2024-02-21T05:22:26;99098.00;;;0.61;22.45
42727;BME280;28372;56.832;60.658;2024-02-21T05:24:54;99095.75;;;0.78;22.23
42727;BME280;28372;56.832;60.658;2024-02-21T05:27:24;99098.59;;;0.97;22.11
42727;BME280;28372;56.832;60.658;2024-02-21T05:29:54;99091.28;;;1.18;21.95
42727;BME280;28372;56.832;60.658;2024-02-21T05:32:21;99100.88;;;1.54;21.94
42727;BME280;28372;56.832;60.658;2024-02-21T05:34:50;99106.50;;;1.82;21.88
42727;BME280;28372;56.832;60.658;2024-02-21T05:37:18;99093.69;;;2.13;21.42
42727;BME280;28372;56.832;60.658;2024-02-21T05:39:46;99100.63;;;2.57;21.02
42727;BME280;28372;56.832;60.658;2024-02-21T05:42:14;99102.13;;;2.88;20.57
42727;BME280;28372;56.832;60.658;2024-02-21T05:44:41;99094.41;;;3.24;20.00
42727;BME280;28372;56.832;60.658;2024-02-21T05:47:10;99111.34;;;3.53;19.62
42727;BME280;28372;56.832;60.658;2024-02-21T05:49:40;99097.84;;;3.77;19.75
42727;BME280;28372;56.832;60.658;2024-02-21T05:52:08;99102.91;;;3.78;19.73
42727;BME280;28372;56.832;60.658;2024-02-21T05:54:39;99104.53;;;3.93;19.17
42727;BME280;28372;56.832;60.658;2024-02-21T05:57:09;99098.81;;;4.28;19.11
42727;BME280;28372;56.832;60.658;2024-02-21T05:59:38;99106.03;;;4.69;18.79
42727;BME280;28372;56.832;60.658;2024-02-21T06:02:09;99090.69;;;4.97;18.49
42727;BME280;28372;56.832;60.658;2024-02-21T06:04:37;99083.34;;;5.26;18.24
42727;BME280;28372;56.832;60.658;2024-02-21T06:07:07;99096.03;;;5.57;18.38
42727;BME280;28372;56.832;60.658;2024-02-21T06:09:35;99098.41;;;5.81;17.95
42727;BME280;28372;56.832;60.658;2024-02-21T06:12:03;99095.22;;;6.02;18.11
42727;BME280;28372;56.832;60.658;2024-02-21T06:14:33;99096.13;;;6.28;17.93
42727;BME280;28372;56.832;60.658;2024-02-21T06:17:01;99098.44;;;6.61;17.64
42727;BME280;28372;56.832;60.658;2024-02-21T06:19:31;99093.75;;;6.84;17.68
42727;BME280;28372;56.832;60.658;2024-02-21T06:22:00;99092.66;;;7.12;17.20
42727;BME280;28372;56.832;60.658;2024-02-21T06:24:28;99089.47;;;7.45;16.83
42727;BME280;28372;56.832;60.658;2024-02-21T06:26:56;99082.81;;;7.60;16.96
42727;BME280;28372;56.832;60.658;2024-02-21T06:29:23;99087.69;;;7.75;16.60
42727;BME280;28372;56.832;60.658;2024-02-21T06:31:51;99086.75;;;7.71;16.11
42727;BME280;28372;56.832;60.658;2024-02-21T06:34:19;99080.72;;;7.74;16.65
42727;BME280;28372;56.832;60.658;2024-02-21T06:36:48;99085.91;;;7.88;16.13
42727;BME280;28372;56.832;60.658;2024-02-21T06:39:16;99089.41;;;7.97;16.44
42727;BME280;28372;56.832;60.658;2024-02-21T06:41:44;99082.97;;;8.19;16.08
42727;BME280;28372;56.832;60.658;2024-02-21T06:44:12;99079.59;;;8.31;16.07
42727;BME280;28372;56.832;60.658;2024-02-21T06:46:40;99097.97;;;8.68;15.46
42727;BME280;28372;56.832;60.658;2024-02-21T06:49:07;99081.22;;;8.83;15.71
42727;BME280;28372;56.832;60.658;2024-02-21T06:51:35;99104.22;;;9.11;15.12
42727;BME280;28372;56.832;60.658;2024-02-21T06:54:04;99086.13;;;9.11;15.00
42727;BME280;28372;56.832;60.658;2024-02-21T06:56:33;99082.22;;;9.00;15.54
42727;BME280;28372;56.832;60.658;2024-02-21T06:59:02;99088.88;;;9.02;15.41
42727;BME280;28372;56.832;60.658;2024-02-21T07:01:33;99071.50;;;9.12;15.10
42727;BME280;28372;56.832;60.658;2024-02-21T07:04:01;99084.31;;;9.36;15.06
42727;BME280;28372;56.832;60.658;2024-02-21T07:06:29;99084.88;;;9.63;14.96
42727;BME280;28372;56.832;60.658;2024-02-21T07:09:02;99084.22;;;9.78;14.62
42727;BME280;28372;56.832;60.658;2024-02-21T07:11:30;99085.16;;;9.95;14.68
42727;BME280;28372;56.832;60.658;2024-02-21T07:13:58;99084.59;;;9.89;14.61
42727;BME280;28372;56.832;60.658;2024-02-21T07:16:29;99077.75;;;10.04;14.36
42727;BME280;28372;56.832;60.658;2024-02-21T07:19:00;99081.47;;;10.00;14.30
42727;BME280;28372;56.832;60.658;2024-02-21T07:21:29;99080.34;;;10.01;14.39
42727;BME280;28372;56.832;60.658;2024-02-21T07:23:57;99088.97;;;9.82;14.74
42727;BME280;28372;56.832;60.658;2024-02-21T07:26:25;99085.00;;;9.67;14.57
42727;BME280;28372;56.832;60.658;2024-02-21T07:28:53;99081.59;;;9.57;14.63
42727;BME280;28372;56.832;60.658;2024-02-21T07:31:20;99083.31;;;9.41;15.08
42727;BME280;28372;56.832;60.658;2024-02-21T07:33:48;99079.38;;;9.17;15.15
42727;BME280;28372;56.832;60.658;2024-02-21T07:36:27;99078.75;;;8.78;14.72
42727;BME280;28372;56.832;60.658;2024-02-21T07:38:55;99085.47;;;8.33;15.30
42727;BME280;28372;56.832;60.658;2024-02-21T07:41:24;99082.78;;;7.86;15.14
42727;BME280;28372;56.832;60.658;2024-02-21T07:43:53;99076.50;;;7.29;15.53
42727;BME280;28372;56.832;60.658;2024-02-21T07:46:22;99084.88;;;6.75;16.10
42727;BME280;28372;56.832;60.658;2024-02-21T07:48:50;99091.53;;;6.20;16.13
42727;BME280;28372;56.832;60.658;2024-02-21T07:51:18;99089.88;;;5.56;16.44
42727;BME280;28372;56.832;60.658;2024-02-21T07:53:49;99090.25;;;5.18;17.24
42727;BME280;28372;56.832;60.658;2024-02-21T07:56:17;99087.56;;;4.82;17.65
42727;BME280;28372;56.832;60.658;2024-02-21T07:58:45;99081.47;;;4.39;17.64
42727;BME280;28372;56.832;60.658;2024-02-21T08:01:21;99076.78;;;4.17;17.80
42727;BME280;28372;56.832;60.658;2024-02-21T08:03:50;99072.47;;;3.88;17.85
42727;BME280;28372;56.832;60.658;2024-02-21T08:06:21;99077.31;;;3.72;18.43
42727;BME280;28372;56.832;60.658;2024-02-21T08:08:49;99065.81;;;3.39;17.76
42727;BME280;28372;56.832;60.658;2024-02-21T08:11:17;99082.28;;;3.13;18.21
42727;BME280;28372;56.832;60.658;2024-02-21T08:13:45;99078.16;;;2.83;18.26
42727;BME280;28372;56.832;60.658;2024-02-21T08:16:12;99069.94;;;2.36;18.44
42727;BME280;28372;56.832;60.658;2024-02-21T08:18:40;99082.81;;;2.04;18.76
42727;BME280;28372;56.832;60.658;2024-02-21T08:21:12;99084.88;;;1.83;19.87
42727;BME280;28372;56.832;60.658;2024-02-21T08:23:40;99079.25;;;1.56;19.28
42727;BME280;28372;56.832;60.658;2024-02-21T08:26:08;99082.97;;;1.25;19.41
42727;BME280;28372;56.832;60.658;2024-02-21T08:28:37;99084.03;;;0.84;19.57
42727;BME280;28372;56.832;60.658;2024-02-21T08:31:07;99070.03;;;0.58;20.13
42727;BME280;28372;56.832;60.658;2024-02-21T08:33:36;99067.72;;;0.36;19.94
42727;BME280;28372;56.832;60.658;2024-02-21T08:36:04;99068.41;;;-0.08;20.23
42727;BME280;28372;56.832;60.658;2024-02-21T08:38:32;99071.09;;;-0.49;20.67
42727;BME280;28372;56.832;60.658;2024-02-21T08:41:04;99079.84;;;-1.00;20.71
42727;BME280;28372;56.832;60.658;2024-02-21T08:43:34;99057.69;;;-1.47;21.02
42727;BME280;28372;56.832;60.658;2024-02-21T08:46:04;99067.13;;;-1.77;22.03
42727;BME280;28372;56.832;60.658;2024-02-21T08:48:32;99054.19;;;-2.16;22.60
42727;BME280;28372;56.832;60.658;2024-02-21T08:51:00;99060.06;;;-2.14;22.87
42727;BME280;28372;56.832;60.658;2024-02-21T08:53:30;99065.66;;;-2.05;22.29
42727;BME280;28372;56.832;60.658;2024-02-21T08:55:58;99063.28;;;-2.07;22.63
42727;BME280;28372;56.832;60.658;2024-02-21T08:58:26;99058.50;;;-2.10;22.37
42727;BME280;28372;56.832;60.658;2024-02-21T09:00:54;99063.50;;;-2.14;22.94
42727;BME280;28372;56.832;60.658;2024-02-21T09:03:22;99057.84;;;-2.28;22.71
42727;BME280;28372;56.832;60.658;2024-02-21T09:05:50;99059.06;;;-2.41;22.71
42727;BME280;28372;56.832;60.658;2024-02-21T09:08:18;99044.34;;;-2.64;23.58
42727;BME280;28372;56.832;60.658;2024-02-21T09:10:46;99060.28;;;-2.59;23.14
42727;BME280;28372;56.832;60.658;2024-02-21T09:13:14;99059.75;;;-2.88;23.67
42727;BME280;28372;56.832;60.658;2024-02-21T09:15:42;99059.78;;;-3.15;24.41
42727;BME280;28372;56.832;60.658;2024-02-21T09:18:10;99056.94;;;-3.58;24.46
42727;BME280;28372;56.832;60.658;2024-02-21T09:20:38;99049.38;;;-3.93;24.74
42727;BME280;28372;56.832;60.658;2024-02-21T09:23:06;99041.25;;;-4.09;24.67
42727;BME280;28372;56.832;60.658;2024-02-21T09:25:33;99054.34;;;-4.19;25.04
42727;BME280;28372;56.832;60.658;2024-02-21T09:28:02;99052.75;;;-4.37;25.18
42727;BME280;28372;56.832;60.658;2024-02-21T09:30:30;99048.66;;;-4.28;25.32
42727;BME280;28372;56.832;60.658;2024-02-21T09:32:58;99043.88;;;-4.48;24.87
42727;BME280;28372;56.832;60.658;2024-02-21T09:35:27;99049.56;;;-4.56;25.34
42727;BME280;28372;56.832;60.658;2024-02-21T09:37:55;99045.94;;;-4.84;25.72
42727;BME280;28372;56.832;60.658;2024-02-21T09:40:23;99028.84;;;-4.99;25.65
42727;BME280;28372;56.832;60.658;2024-02-21T09:43:02;99039.41;;;-4.82;26.51
42727;BME280;28372;56.832;60.658;2024-02-21T09:45:34;99037.88;;;-4.94;26.29
42727;BME280;28372;56.832;60.658;2024-02-21T09:48:24;99037.63;;;-5.10;26.62
42727;BME280;28372;56.832;60.658;2024-02-21T09:50:54;99041.50;;;-5.29;27.25
42727;BME280;28372;56.832;60.658;2024-02-21T09:53:24;99042.44;;;-5.36;26.58
42727;BME280;28372;56.832;60.658;2024-02-21T09:55:52;99037.94;;;-5.52;26.75
42727;BME280;28372;56.832;60.658;2024-02-21T09:58:21;99032.38;;;-5.68;27.37
42727;BME280;28372;56.832;60.658;2024-02-21T10:00:50;99021.41;;;-5.88;27.58
42727;BME280;28372;56.832;60.658;2024-02-21T10:03:18;99016.09;;;-6.05;27.86
42727;BME280;28372;56.832;60.658;2024-02-21T10:05:49;99026.09;;;-6.07;28.23
42727;BME280;28372;56.832;60.658;2024-02-21T10:08:19;99038.69;;;-6.21;27.86
42727;BME280;28372;56.832;60.658;2024-02-21T10:10:47;99038.69;;;-6.33;28.22
42727;BME280;28372;56.832;60.658;2024-02-21T10:13:28;99023.59;;;-6.38;28.32
42727;BME280;28372;56.832;60.658;2024-02-21T10:16:08;99033.66;;;-6.46;28.61
42727;BME280;28372;56.832;60.658;2024-02-21T10:18:36;99033.31;;;-6.50;28.32
42727;BME280;28372;56.832;60.658;2024-02-21T10:21:06;99037.66;;;-6.67;28.47
42727;BME280;28372;56.832;60.658;2024-02-21T10:23:45;99040.94;;;-6.84;29.10
42727;BME280;28372;56.832;60.658;2024-02-21T10:26:14;99039.66;;;-7.05;29.45
42727;BME280;28372;56.832;60.658;2024-02-21T10:28:42;99037.13;;;-7.12;29.53
42727;BME280;28372;56.832;60.658;2024-02-21T10:31:21;99024.19;;;-7.13;29.78
42727;BME280;28372;56.832;60.658;2024-02-21T10:34:00;99026.91;;;-7.20;29.75
42727;BME280;28372;56.832;60.658;2024-02-21T10:36:33;99021.59;;;-7.44;30.36
42727;BME280;28372;56.832;60.658;2024-02-21T10:39:01;99028.44;;;-7.43;30.89
42727;BME280;28372;56.832;60.658;2024-02-21T10:41:31;98973.38;;;-7.80;30.25
42727;BME280;28372;56.832;60.658;2024-02-21T10:44:00;99015.22;;;-7.66;30.52
42727;BME280;28372;56.832;60.658;2024-02-21T10:46:32;99028.28;;;-7.60;30.94
42727;BME280;28372;56.832;60.658;2024-02-21T10:49:22;99019.94;;;-7.57;31.14
42727;BME280;28372;56.832;60.658;2024-02-21T10:55:20;99032.00;;;-7.67;30.70
42727;BME280;28372;56.832;60.658;2024-02-21T10:57:53;99022.22;;;-7.79;31.30
42727;BME280;28372;56.832;60.658;2024-02-21T11:00:21;99023.13;;;-7.85;31.24
42727;BME280;28372;56.832;60.658;2024-02-21T11:02:52;99028.09;;;-7.77;30.91
42727;BME280;28372;56.832;60.658;2024-02-21T11:05:20;99021.66;;;-7.81;31.61
42727;BME280;28372;56.832;60.658;2024-02-21T11:07:48;99032.25;;;-7.87;31.48
42727;BME280;28372;56.832;60.658;2024-02-21T11:10:26;99030.06;;;-7.90;31.54
42727;BME280;28372;56.832;60.658;2024-02-21T11:13:08;99028.31;;;-7.78;31.32
42727;BME280;28372;56.832;60.658;2024-02-21T11:15:37;99024.81;;;-7.90;31.42
42727;BME280;28372;56.832;60.658;2024-02-21T11:18:04;99019.34;;;-8.07;31.62
42727;BME280;28372;56.832;60.658;2024-02-21T11:20:36;99033.03;;;-8.05;32.38
42727;BME280;28372;56.832;60.658;2024-02-21T11:23:04;99018.03;;;-8.17;31.77
42727;BME280;28372;56.832;60.658;2024-02-21T11:25:33;99023.56;;;-8.25;32.02
42727;BME280;28372;56.832;60.658;2024-02-21T11:28:05;99015.75;;;-8.32;32.02
42727;BME280;28372;56.832;60.658;2024-02-21T11:30:37;99010.59;;;-8.38;32.04
42727;BME280;28372;56.832;60.658;2024-02-21T11:33:07;99020.66;;;-8.35;32.18
42727;BME280;28372;56.832;60.658;2024-02-21T11:35:35;99022.41;;;-8.48;32.34
42727;BME280;28372;56.832;60.658;2024-02-21T11:38:11;99015.63;;;-8.55;32.39
42727;BME280;28372;56.832;60.658;2024-02-21T11:40:46;99019.25;;;-8.56;32.72
42727;BME280;28372;56.832;60.658;2024-02-21T11:43:15;99015.25;;;-8.59;32.64
42727;BME280;28372;56.832;60.658;2024-02-21T11:45:44;99020.56;;;-8.47;32.54
42727;BME280;28372;56.832;60.658;2024-02-21T11:48:12;99010.22;;;-8.42;32.09
42727;BME280;28372;56.832;60.658;2024-02-21T11:50:40;99010.00;;;-8.59;32.45
42727;BME280;28372;56.832;60.658;2024-02-21T11:53:08;99001.63;;;-8.68;32.28
42727;BME280;28372;56.832;60.658;2024-02-21T11:55:37;99025.34;;;-8.63;32.24
42727;BME280;28372;56.832;60.658;2024-02-21T11:58:05;99022.16;;;-8.65;32.29
42727;BME280;28372;56.832;60.658;2024-02-21T12:00:34;99016.25;;;-8.60;32.51
42727;BME280;28372;56.832;60.658;2024-02-21T12:03:02;99015.09;;;-8.64;32.22
42727;BME280;28372;56.832;60.658;2024-02-21T12:05:49;99023.28;;;-8.54;32.07
42727;BME280;28372;56.832;60.658;2024-02-21T12:08:17;99020.19;;;-8.69;32.47
42727;BME280;28372;56.832;60.658;2024-02-21T12:10:45;99025.25;;;-8.49;32.07
42727;BME280;28372;56.832;60.658;2024-02-21T12:13:22;99019.84;;;-8.54;32.03
42727;BME280;28372;56.832;60.658;2024-02-21T12:15:50;99018.53;;;-8.64;32.67
42727;BME280;28372;56.832;60.658;2024-02-21T12:18:18;99009.69;;;-8.69;32.31
42727;BME280;28372;56.832;60.658;2024-02-21T12:20:51;99027.84;;;-8.68;32.51
42727;BME280;28372;56.832;60.658;2024-02-21T12:23:20;99029.34;;;-8.79;32.25
42727;BME280;28372;56.832;60.658;2024-02-21T12:25:48;99023.91;;;-8.84;32.61
42727;BME280;28372;56.832;60.658;2024-02-21T12:28:16;99034.28;;;-8.89;32.75
42727;BME280;28372;56.832;60.658;2024-02-21T12:30:44;99028.16;;;-8.83;32.91
42727;BME280;28372;56.832;60.658;2024-02-21T12:33:12;99023.22;;;-8.98;32.76
42727;BME280;28372;56.832;60.658;2024-02-21T12:35:41;99019.63;;;-9.03;32.36
42727;BME280;28372;56.832;60.658;2024-02-21T12:38:10;99025.31;;;-9.06;32.75
42727;BME280;28372;56.832;60.658;2024-02-21T12:40:38;99021.91;;;-9.07;33.04
42727;BME280;28372;56.832;60.658;2024-02-21T12:43:06;99034.03;;;-9.13;32.86
42727;BME280;28372;56.832;60.658;2024-02-21T12:45:34;99020.34;;;-9.47;33.16
42727;BME280;28372;56.832;60.658;2024-02-21T12:48:02;99019.50;;;-9.40;33.31
42727;BME280;28372;56.832;60.658;2024-02-21T12:50:32;99031.59;;;-9.39;33.61
42727;BME280;28372;56.832;60.658;2024-02-21T12:53:00;99027.84;;;-9.57;33.67
42727;BME280;28372;56.832;60.658;2024-02-21T12:55:28;99021.81;;;-9.57;33.70
42727;BME280;28372;56.832;60.658;2024-02-21T12:58:15;99031.94;;;-9.68;33.54
42727;BME280;28372;56.832;60.658;2024-02-21T13:00:43;99022.09;;;-9.79;33.39